sensor_id;sensor_type;location;lat;lon;timestamp;P1;durP1;ratioP1;P2;durP2;ratioP2
53269;SDS011;39159;45.634;9.420;2023-04-25T00:01:54;7.15;;;3.95;;
53269;SDS011;39159;45.634;9.420;2023-04-25T00:04:21;5.97;;;4.00;;
53269;SDS011;39159;45.634;9.420;2023-04-25T00:06:47;8.82;;;3.95;;
53269;SDS011;39159;45.634;9.420;2023-04-25T00:09:13;6.25;;;4.00;;
53269;SDS011;39159;45.634;9.420;2023-04-25T00:11:39;6.13;;;4.13;;
53269;SDS011;39159;45.634;9.420;2023-04-25T00:14:05;5.43;;;3.45;;
53269;SDS011;39159;45.634;9.420;2023-04-25T00:16:31;6.85;;;3.90;;
53269;SDS011;39159;45.634;9.420;2023-04-25T00:18:59;5.57;;;3.75;;
53269;SDS011;39159;45.634;9.420;2023-04-25T00:21:24;7.35;;;3.70;;
53269;SDS011;39159;45.634;9.420;2023-04-25T00:23:52;4.78;;;3.50;;
53269;SDS011;39159;45.634;9.420;2023-04-25T00:26:18;4.65;;;3.22;;
53269;SDS011;39159;45.634;9.420;2023-04-25T00:28:45;4.20;;;2.80;;
53269;SDS011;39159;45.634;9.420;2023-04-25T00:31:11;4.50;;;3.55;;
53269;SDS011;39159;45.634;9.420;2023-04-25T00:33:37;4.22;;;2.95;;
53269;SDS011;39159;45.634;9.420;2023-04-25T00:36:02;9.25;;;3.15;;
53269;SDS011;39159;45.634;9.420;2023-04-25T00:38:28;3.85;;;2.90;;
53269;SDS011;39159;45.634;9.420;2023-04-25T00:40:53;4.30;;;3.30;;
53269;SDS011;39159;45.634;9.420;2023-04-25T00:43:20;4.80;;;2.95;;
53269;SDS011;39159;45.634;9.420;2023-04-25T00:45:46;5.43;;;3.17;;
53269;SDS011;39159;45.634;9.420;2023-04-25T00:48:13;4.95;;;2.60;;
53269;SDS011;39159;45.634;9.420;2023-04-25T00:50:40;6.30;;;3.28;;
53269;SDS011;39159;45.634;9.420;2023-04-25T00:53:06;3.83;;;2.97;;
53269;SDS011;39159;45.634;9.420;2023-04-25T00:55:32;3.95;;;2.67;;
53269;SDS011;39159;45.634;9.420;2023-04-25T00:57:59;4.78;;;2.85;;
53269;SDS011;39159;45.634;9.420;2023-04-25T01:00:25;3.75;;;2.83;;
53269;SDS011;39159;45.634;9.420;2023-04-25T01:02:50;4.07;;;2.85;;
53269;SDS011;39159;45.634;9.420;2023-04-25T01:05:17;4.40;;;2.70;;
53269;SDS011;39159;45.634;9.420;2023-04-25T01:07:43;4.15;;;2.72;;
53269;SDS011;39159;45.634;9.420;2023-04-25T01:10:10;4.18;;;2.80;;
53269;SDS011;39159;45.634;9.420;2023-04-25T01:12:35;6.10;;;2.88;;
53269;SDS011;39159;45.634;9.420;2023-04-25T01:15:01;3.70;;;2.72;;
53269;SDS011;39159;45.634;9.420;2023-04-25T01:17:27;4.75;;;2.80;;
53269;SDS011;39159;45.634;9.420;2023-04-25T01:19:54;2.92;;;2.40;;
53269;SDS011;39159;45.634;9.420;2023-04-25T01:22:19;3.22;;;2.45;;
53269;SDS011;39159;45.634;9.420;2023-04-25T01:24:45;3.40;;;2.50;;
53269;SDS011;39159;45.634;9.420;2023-04-25T01:27:11;4.57;;;2.75;;
53269;SDS011;39159;45.634;9.420;2023-04-25T01:29:37;2.67;;;2.10;;
53269;SDS011;39159;45.634;9.420;2023-04-25T01:32:03;5.00;;;2.53;;
53269;SDS011;39159;45.634;9.420;2023-04-25T01:34:30;3.88;;;2.50;;
53269;SDS011;39159;45.634;9.420;2023-04-25T01:36:56;5.05;;;2.40;;
53269;SDS011;39159;45.634;9.420;2023-04-25T01:39:21;2.65;;;2.13;;
53269;SDS011;39159;45.634;9.420;2023-04-25T01:41:47;3.70;;;2.30;;
53269;SDS011;39159;45.634;9.420;2023-04-25T01:44:14;3.38;;;1.92;;
53269;SDS011;39159;45.634;9.420;2023-04-25T01:46:39;2.92;;;2.10;;
53269;SDS011;39159;45.634;9.420;2023-04-25T01:49:05;2.95;;;2.10;;
53269;SDS011;39159;45.634;9.420;2023-04-25T01:51:31;2.40;;;1.92;;
53269;SDS011;39159;45.634;9.420;2023-04-25T01:53:57;2.40;;;2.00;;
53269;SDS011;39159;45.634;9.420;2023-04-25T01:56:22;3.63;;;1.95;;
53269;SDS011;39159;45.634;9.420;2023-04-25T01:58:48;4.57;;;2.60;;
53269;SDS011;39159;45.634;9.420;2023-04-25T02:01:14;3.25;;;2.10;;
53269;SDS011;39159;45.634;9.420;2023-04-25T02:03:39;2.90;;;2.03;;
53269;SDS011;39159;45.634;9.420;2023-04-25T02:06:05;4.63;;;2.00;;
53269;SDS011;39159;45.634;9.420;2023-04-25T02:08:30;3.47;;;2.10;;
53269;SDS011;39159;45.634;9.420;2023-04-25T02:10:56;4.35;;;2.20;;
53269;SDS011;39159;45.634;9.420;2023-04-25T02:13:22;3.92;;;1.83;;
53269;SDS011;39159;45.634;9.420;2023-04-25T02:15:47;2.58;;;1.98;;
53269;SDS011;39159;45.634;9.420;2023-04-25T02:18:13;3.30;;;1.90;;
53269;SDS011;39159;45.634;9.420;2023-04-25T02:20:41;2.65;;;2.10;;
53269;SDS011;39159;45.634;9.420;2023-04-25T02:23:07;3.45;;;2.40;;
53269;SDS011;39159;45.634;9.420;2023-04-25T02:25:32;4.25;;;2.38;;
53269;SDS011;39159;45.634;9.420;2023-04-25T02:27:58;5.50;;;2.70;;
53269;SDS011;39159;45.634;9.420;2023-04-25T02:30:23;4.53;;;3.05;;
53269;SDS011;39159;45.634;9.420;2023-04-25T02:32:49;4.93;;;2.63;;
53269;SDS011;39159;45.634;9.420;2023-04-25T02:35:14;3.75;;;2.63;;
53269;SDS011;39159;45.634;9.420;2023-04-25T02:37:40;4.43;;;2.10;;
53269;SDS011;39159;45.634;9.420;2023-04-25T02:40:06;2.72;;;1.73;;
53269;SDS011;39159;45.634;9.420;2023-04-25T02:42:32;2.40;;;2.00;;
53269;SDS011;39159;45.634;9.420;2023-04-25T02:44:57;3.55;;;2.00;;
53269;SDS011;39159;45.634;9.420;2023-04-25T02:47:23;3.90;;;1.90;;
53269;SDS011;39159;45.634;9.420;2023-04-25T02:49:49;3.67;;;2.08;;
53269;SDS011;39159;45.634;9.420;2023-04-25T02:52:15;2.40;;;2.00;;
53269;SDS011;39159;45.634;9.420;2023-04-25T02:54:40;2.80;;;1.95;;
53269;SDS011;39159;45.634;9.420;2023-04-25T02:57:06;2.92;;;2.30;;
53269;SDS011;39159;45.634;9.420;2023-04-25T02:59:32;5.28;;;2.20;;
53269;SDS011;39159;45.634;9.420;2023-04-25T03:01:58;3.17;;;2.45;;
53269;SDS011;39159;45.634;9.420;2023-04-25T03:04:24;3.00;;;2.22;;
53269;SDS011;39159;45.634;9.420;2023-04-25T03:06:50;3.78;;;2.40;;
53269;SDS011;39159;45.634;9.420;2023-04-25T03:09:16;4.30;;;2.33;;
53269;SDS011;39159;45.634;9.420;2023-04-25T03:11:41;4.53;;;2.40;;
53269;SDS011;39159;45.634;9.420;2023-04-25T03:14:07;3.72;;;2.05;;
53269;SDS011;39159;45.634;9.420;2023-04-25T03:16:33;5.10;;;2.40;;
53269;SDS011;39159;45.634;9.420;2023-04-25T03:18:58;2.25;;;1.98;;
53269;SDS011;39159;45.634;9.420;2023-04-25T03:21:24;2.85;;;2.00;;
53269;SDS011;39159;45.634;9.420;2023-04-25T03:23:50;5.07;;;2.25;;
53269;SDS011;39159;45.634;9.420;2023-04-25T03:26:15;2.20;;;1.77;;
53269;SDS011;39159;45.634;9.420;2023-04-25T03:28:41;4.45;;;1.80;;
53269;SDS011;39159;45.634;9.420;2023-04-25T03:31:06;5.38;;;2.17;;
53269;SDS011;39159;45.634;9.420;2023-04-25T03:33:32;2.15;;;1.23;;
53269;SDS011;39159;45.634;9.420;2023-04-25T03:35:57;2.45;;;1.20;;
53269;SDS011;39159;45.634;9.420;2023-04-25T03:38:23;3.38;;;1.00;;
53269;SDS011;39159;45.634;9.420;2023-04-25T03:40:49;2.55;;;1.20;;
53269;SDS011;39159;45.634;9.420;2023-04-25T03:43:15;1.95;;;1.00;;
53269;SDS011;39159;45.634;9.420;2023-04-25T03:45:41;1.42;;;0.80;;
53269;SDS011;39159;45.634;9.420;2023-04-25T03:48:06;1.08;;;0.98;;
53269;SDS011;39159;45.634;9.420;2023-04-25T03:50:32;0.57;;;0.57;;
53269;SDS011;39159;45.634;9.420;2023-04-25T03:52:57;2.70;;;0.80;;
53269;SDS011;39159;45.634;9.420;2023-04-25T03:55:23;1.75;;;1.00;;
53269;SDS011;39159;45.634;9.420;2023-04-25T03:57:48;1.08;;;0.60;;
53269;SDS011;39159;45.634;9.420;2023-04-25T04:00:14;1.90;;;1.00;;
53269;SDS011;39159;45.634;9.420;2023-04-25T04:02:40;3.20;;;1.90;;
53269;SDS011;39159;45.634;9.420;2023-04-25T04:05:05;2.75;;;1.33;;
53269;SDS011;39159;45.634;9.420;2023-04-25T04:07:31;1.73;;;1.48;;
53269;SDS011;39159;45.634;9.420;2023-04-25T04:09:58;2.50;;;1.70;;
53269;SDS011;39159;45.634;9.420;2023-04-25T04:12:24;5.43;;;1.85;;
53269;SDS011;39159;45.634;9.420;2023-04-25T04:14:49;2.22;;;1.90;;
53269;SDS011;39159;45.634;9.420;2023-04-25T04:17:15;2.97;;;1.73;;
53269;SDS011;39159;45.634;9.420;2023-04-25T04:19:40;2.08;;;1.70;;
53269;SDS011;39159;45.634;9.420;2023-04-25T04:22:06;3.65;;;2.30;;
53269;SDS011;39159;45.634;9.420;2023-04-25T04:24:32;3.60;;;2.53;;
53269;SDS011;39159;45.634;9.420;2023-04-25T04:26:57;3.72;;;3.03;;
53269;SDS011;39159;45.634;9.420;2023-04-25T04:29:24;3.58;;;2.63;;
53269;SDS011;39159;45.634;9.420;2023-04-25T04:31:50;5.22;;;2.83;;
53269;SDS011;39159;45.634;9.420;2023-04-25T04:34:16;2.65;;;2.42;;
53269;SDS011;39159;45.634;9.420;2023-04-25T04:36:43;4.05;;;3.15;;
53269;SDS011;39159;45.634;9.420;2023-04-25T04:39:11;3.53;;;2.70;;
53269;SDS011;39159;45.634;9.420;2023-04-25T04:41:36;4.43;;;3.60;;
53269;SDS011;39159;45.634;9.420;2023-04-25T04:44:02;4.50;;;2.90;;
53269;SDS011;39159;45.634;9.420;2023-04-25T04:46:28;4.97;;;3.35;;
53269;SDS011;39159;45.634;9.420;2023-04-25T04:48:53;4.15;;;3.30;;
53269;SDS011;39159;45.634;9.420;2023-04-25T04:51:19;2.80;;;2.25;;
53269;SDS011;39159;45.634;9.420;2023-04-25T04:53:45;2.60;;;2.03;;
53269;SDS011;39159;45.634;9.420;2023-04-25T04:56:11;4.57;;;2.40;;
53269;SDS011;39159;45.634;9.420;2023-04-25T04:58:36;2.88;;;1.98;;
53269;SDS011;39159;45.634;9.420;2023-04-25T05:01:02;2.47;;;1.50;;
53269;SDS011;39159;45.634;9.420;2023-04-25T05:03:28;2.97;;;1.55;;
53269;SDS011;39159;45.634;9.420;2023-04-25T05:05:53;2.45;;;1.45;;
53269;SDS011;39159;45.634;9.420;2023-04-25T05:08:20;3.28;;;1.10;;
53269;SDS011;39159;45.634;9.420;2023-04-25T05:10:45;1.67;;;1.30;;
53269;SDS011;39159;45.634;9.420;2023-04-25T05:13:11;2.20;;;1.10;;
53269;SDS011;39159;45.634;9.420;2023-04-25T05:15:36;2.80;;;1.42;;
53269;SDS011;39159;45.634;9.420;2023-04-25T05:18:02;1.67;;;1.20;;
53269;SDS011;39159;45.634;9.420;2023-04-25T05:20:27;2.97;;;1.27;;
53269;SDS011;39159;45.634;9.420;2023-04-25T05:22:53;3.75;;;1.40;;
53269;SDS011;39159;45.634;9.420;2023-04-25T05:25:18;3.55;;;1.48;;
53269;SDS011;39159;45.634;9.420;2023-04-25T05:27:44;3.03;;;1.33;;
53269;SDS011;39159;45.634;9.420;2023-04-25T05:30:09;3.55;;;1.38;;
53269;SDS011;39159;45.634;9.420;2023-04-25T05:32:35;5.40;;;1.25;;
53269;SDS011;39159;45.634;9.420;2023-04-25T05:35:01;2.25;;;1.00;;
53269;SDS011;39159;45.634;9.420;2023-04-25T05:37:27;2.17;;;0.98;;
53269;SDS011;39159;45.634;9.420;2023-04-25T05:39:55;2.40;;;0.90;;
53269;SDS011;39159;45.634;9.420;2023-04-25T05:42:20;2.50;;;1.20;;
53269;SDS011;39159;45.634;9.420;2023-04-25T05:44:46;2.03;;;1.15;;
53269;SDS011;39159;45.634;9.420;2023-04-25T05:47:12;2.05;;;1.10;;
53269;SDS011;39159;45.634;9.420;2023-04-25T05:49:37;1.90;;;0.95;;
53269;SDS011;39159;45.634;9.420;2023-04-25T05:52:03;2.65;;;0.77;;
53269;SDS011;39159;45.634;9.420;2023-04-25T05:54:28;1.23;;;1.02;;
53269;SDS011;39159;45.634;9.420;2023-04-25T05:56:54;1.23;;;0.88;;
53269;SDS011;39159;45.634;9.420;2023-04-25T05:59:21;1.35;;;0.93;;
53269;SDS011;39159;45.634;9.420;2023-04-25T06:01:46;1.95;;;1.33;;
53269;SDS011;39159;45.634;9.420;2023-04-25T06:04:12;2.70;;;1.30;;
53269;SDS011;39159;45.634;9.420;2023-04-25T06:06:37;3.22;;;1.20;;
53269;SDS011;39159;45.634;9.420;2023-04-25T06:09:02;1.27;;;1.10;;
53269;SDS011;39159;45.634;9.420;2023-04-25T06:11:28;2.40;;;1.30;;
53269;SDS011;39159;45.634;9.420;2023-04-25T06:13:53;1.88;;;1.10;;
53269;SDS011;39159;45.634;9.420;2023-04-25T06:16:19;1.20;;;0.98;;
53269;SDS011;39159;45.634;9.420;2023-04-25T06:18:45;1.77;;;1.08;;
53269;SDS011;39159;45.634;9.420;2023-04-25T06:21:10;3.78;;;1.00;;
53269;SDS011;39159;45.634;9.420;2023-04-25T06:23:36;1.30;;;1.00;;
53269;SDS011;39159;45.634;9.420;2023-04-25T06:26:01;1.20;;;1.08;;
53269;SDS011;39159;45.634;9.420;2023-04-25T06:28:27;1.30;;;1.00;;
53269;SDS011;39159;45.634;9.420;2023-04-25T06:30:52;1.23;;;1.05;;
53269;SDS011;39159;45.634;9.420;2023-04-25T06:33:17;1.85;;;1.08;;
53269;SDS011;39159;45.634;9.420;2023-04-25T06:35:43;2.15;;;1.20;;
53269;SDS011;39159;45.634;9.420;2023-04-25T06:38:08;2.22;;;1.30;;
53269;SDS011;39159;45.634;9.420;2023-04-25T06:40:34;3.20;;;1.70;;
53269;SDS011;39159;45.634;9.420;2023-04-25T06:42:59;2.28;;;1.73;;
53269;SDS011;39159;45.634;9.420;2023-04-25T06:45:25;2.22;;;1.88;;
53269;SDS011;39159;45.634;9.420;2023-04-25T06:47:50;3.17;;;1.55;;
53269;SDS011;39159;45.634;9.420;2023-04-25T06:50:16;2.20;;;1.67;;
53269;SDS011;39159;45.634;9.420;2023-04-25T06:52:41;3.25;;;1.50;;
53269;SDS011;39159;45.634;9.420;2023-04-25T06:55:07;2.47;;;1.58;;
53269;SDS011;39159;45.634;9.420;2023-04-25T06:57:32;1.77;;;1.40;;
53269;SDS011;39159;45.634;9.420;2023-04-25T06:59:58;1.90;;;1.30;;
53269;SDS011;39159;45.634;9.420;2023-04-25T07:02:23;3.50;;;1.70;;
53269;SDS011;39159;45.634;9.420;2023-04-25T07:04:49;2.22;;;1.23;;
53269;SDS011;39159;45.634;9.420;2023-04-25T07:07:14;2.03;;;1.45;;
53269;SDS011;39159;45.634;9.420;2023-04-25T07:09:40;2.10;;;1.70;;
53269;SDS011;39159;45.634;9.420;2023-04-25T07:12:05;3.88;;;1.70;;
53269;SDS011;39159;45.634;9.420;2023-04-25T07:14:31;2.97;;;1.60;;
53269;SDS011;39159;45.634;9.420;2023-04-25T07:16:56;3.13;;;2.08;;
53269;SDS011;39159;45.634;9.420;2023-04-25T07:19:22;3.17;;;1.88;;
53269;SDS011;39159;45.634;9.420;2023-04-25T07:21:51;4.15;;;1.95;;
53269;SDS011;39159;45.634;9.420;2023-04-25T07:24:17;2.47;;;1.70;;
53269;SDS011;39159;45.634;9.420;2023-04-25T07:26:42;3.60;;;2.00;;
53269;SDS011;39159;45.634;9.420;2023-04-25T07:29:08;2.72;;;1.70;;
53269;SDS011;39159;45.634;9.420;2023-04-25T07:31:33;2.63;;;1.48;;
53269;SDS011;39159;45.634;9.420;2023-04-25T07:33:59;2.70;;;1.73;;
53269;SDS011;39159;45.634;9.420;2023-04-25T07:36:24;3.30;;;2.10;;
53269;SDS011;39159;45.634;9.420;2023-04-25T07:38:51;3.67;;;1.77;;
53269;SDS011;39159;45.634;9.420;2023-04-25T07:41:16;1.98;;;1.48;;
53269;SDS011;39159;45.634;9.420;2023-04-25T07:43:42;3.75;;;1.60;;
53269;SDS011;39159;45.634;9.420;2023-04-25T07:46:07;2.95;;;1.73;;
53269;SDS011;39159;45.634;9.420;2023-04-25T07:48:33;1.88;;;1.50;;
53269;SDS011;39159;45.634;9.420;2023-04-25T07:50:58;2.75;;;1.80;;
53269;SDS011;39159;45.634;9.420;2023-04-25T07:53:24;1.92;;;1.10;;
53269;SDS011;39159;45.634;9.420;2023-04-25T07:55:49;3.03;;;1.45;;
53269;SDS011;39159;45.634;9.420;2023-04-25T07:58:15;1.88;;;1.48;;
53269;SDS011;39159;45.634;9.420;2023-04-25T08:00:46;2.70;;;1.38;;
53269;SDS011;39159;45.634;9.420;2023-04-25T08:03:11;4.30;;;1.60;;
53269;SDS011;39159;45.634;9.420;2023-04-25T08:05:37;2.13;;;1.50;;
53269;SDS011;39159;45.634;9.420;2023-04-25T08:08:02;2.33;;;1.58;;
53269;SDS011;39159;45.634;9.420;2023-04-25T08:10:29;2.60;;;1.75;;
53269;SDS011;39159;45.634;9.420;2023-04-25T08:12:54;3.03;;;2.10;;
53269;SDS011;39159;45.634;9.420;2023-04-25T08:15:20;3.03;;;2.45;;
53269;SDS011;39159;45.634;9.420;2023-04-25T08:17:45;3.88;;;2.40;;
53269;SDS011;39159;45.634;9.420;2023-04-25T08:20:12;3.45;;;2.15;;
53269;SDS011;39159;45.634;9.420;2023-04-25T08:22:38;2.75;;;2.15;;
53269;SDS011;39159;45.634;9.420;2023-04-25T08:25:03;4.60;;;2.30;;
53269;SDS011;39159;45.634;9.420;2023-04-25T08:27:29;4.70;;;2.22;;
53269;SDS011;39159;45.634;9.420;2023-04-25T08:29:55;17.95;;;5.25;;
53269;SDS011;39159;45.634;9.420;2023-04-25T08:32:20;11.07;;;3.75;;
53269;SDS011;39159;45.634;9.420;2023-04-25T08:34:46;2.90;;;1.80;;
53269;SDS011;39159;45.634;9.420;2023-04-25T08:37:12;3.50;;;1.90;;
53269;SDS011;39159;45.634;9.420;2023-04-25T08:39:37;5.00;;;2.30;;
53269;SDS011;39159;45.634;9.420;2023-04-25T08:42:04;17.23;;;6.70;;
53269;SDS011;39159;45.634;9.420;2023-04-25T08:44:35;4.93;;;2.63;;
53269;SDS011;39159;45.634;9.420;2023-04-25T08:47:03;4.78;;;2.40;;
53269;SDS011;39159;45.634;9.420;2023-04-25T08:49:33;6.15;;;2.67;;
53269;SDS011;39159;45.634;9.420;2023-04-25T08:51:59;4.40;;;1.60;;
53269;SDS011;39159;45.634;9.420;2023-04-25T08:54:27;8.18;;;1.65;;
53269;SDS011;39159;45.634;9.420;2023-04-25T08:56:54;3.20;;;1.77;;
53269;SDS011;39159;45.634;9.420;2023-04-25T08:59:21;4.47;;;2.28;;
53269;SDS011;39159;45.634;9.420;2023-04-25T09:01:48;2.90;;;2.10;;
53269;SDS011;39159;45.634;9.420;2023-04-25T09:04:15;4.15;;;1.70;;
53269;SDS011;39159;45.634;9.420;2023-04-25T09:06:40;3.80;;;2.25;;
53269;SDS011;39159;45.634;9.420;2023-04-25T09:09:07;6.00;;;2.25;;
53269;SDS011;39159;45.634;9.420;2023-04-25T09:11:34;2.70;;;1.90;;
53269;SDS011;39159;45.634;9.420;2023-04-25T09:14:18;3.13;;;2.05;;
53269;SDS011;39159;45.634;9.420;2023-04-25T09:19:25;3.47;;;1.83;;
53269;SDS011;39159;45.634;9.420;2023-04-25T09:21:54;4.35;;;1.83;;
53269;SDS011;39159;45.634;9.420;2023-04-25T09:24:31;4.25;;;2.30;;
53269;SDS011;39159;45.634;9.420;2023-04-25T09:26:57;2.45;;;2.17;;
53269;SDS011;39159;45.634;9.420;2023-04-25T09:29:33;2.38;;;2.00;;
53269;SDS011;39159;45.634;9.420;2023-04-25T09:34:46;5.97;;;2.20;;
53269;SDS011;39159;45.634;9.420;2023-04-25T09:37:17;5.00;;;2.70;;
53269;SDS011;39159;45.634;9.420;2023-04-25T09:39:52;3.88;;;1.88;;
53269;SDS011;39159;45.634;9.420;2023-04-25T09:42:21;3.33;;;2.33;;
53269;SDS011;39159;45.634;9.420;2023-04-25T09:44:49;5.85;;;2.95;;
53269;SDS011;39159;45.634;9.420;2023-04-25T09:47:17;3.20;;;2.10;;
53269;SDS011;39159;45.634;9.420;2023-04-25T09:49:43;4.22;;;2.38;;
53269;SDS011;39159;45.634;9.420;2023-04-25T09:52:11;3.33;;;1.90;;
53269;SDS011;39159;45.634;9.420;2023-04-25T09:54:39;2.20;;;1.92;;
53269;SDS011;39159;45.634;9.420;2023-04-25T09:57:10;5.22;;;2.00;;
53269;SDS011;39159;45.634;9.420;2023-04-25T10:00:11;6.45;;;3.03;;
53269;SDS011;39159;45.634;9.420;2023-04-25T10:02:34;2.90;;;2.47;;
53269;SDS011;39159;45.634;9.420;2023-04-25T10:05:00;2.85;;;2.30;;
53269;SDS011;39159;45.634;9.420;2023-04-25T10:07:30;2.92;;;2.17;;
53269;SDS011;39159;45.634;9.420;2023-04-25T10:10:00;5.65;;;2.70;;
53269;SDS011;39159;45.634;9.420;2023-04-25T10:12:30;6.43;;;2.75;;
53269;SDS011;39159;45.634;9.420;2023-04-25T10:14:59;6.15;;;2.53;;
53269;SDS011;39159;45.634;9.420;2023-04-25T10:17:26;4.68;;;2.70;;
53269;SDS011;39159;45.634;9.420;2023-04-25T10:19:52;6.07;;;2.20;;
53269;SDS011;39159;45.634;9.420;2023-04-25T10:22:39;3.10;;;2.33;;
53269;SDS011;39159;45.634;9.420;2023-04-25T10:25:07;3.35;;;2.55;;
53269;SDS011;39159;45.634;9.420;2023-04-25T10:27:34;4.28;;;2.47;;
53269;SDS011;39159;45.634;9.420;2023-04-25T10:32:37;6.93;;;3.13;;
53269;SDS011;39159;45.634;9.420;2023-04-25T10:35:10;6.75;;;2.60;;
53269;SDS011;39159;45.634;9.420;2023-04-25T10:40:30;4.25;;;2.88;;
53269;SDS011;39159;45.634;9.420;2023-04-25T10:45:56;5.15;;;2.47;;
53269;SDS011;39159;45.634;9.420;2023-04-25T10:48:30;4.60;;;2.92;;
53269;SDS011;39159;45.634;9.420;2023-04-25T10:53:34;2.97;;;2.33;;
53269;SDS011;39159;45.634;9.420;2023-04-25T10:55:59;3.55;;;2.42;;
53269;SDS011;39159;45.634;9.420;2023-04-25T10:58:25;3.78;;;2.17;;
53269;SDS011;39159;45.634;9.420;2023-04-25T11:00:51;4.65;;;2.30;;
53269;SDS011;39159;45.634;9.420;2023-04-25T11:03:17;6.43;;;2.50;;
53269;SDS011;39159;45.634;9.420;2023-04-25T11:05:42;5.55;;;2.85;;
53269;SDS011;39159;45.634;9.420;2023-04-25T11:08:11;4.10;;;2.60;;
53269;SDS011;39159;45.634;9.420;2023-04-25T11:10:39;4.45;;;2.40;;
53269;SDS011;39159;45.634;9.420;2023-04-25T11:13:05;14.65;;;6.65;;
53269;SDS011;39159;45.634;9.420;2023-04-25T11:15:30;4.43;;;2.42;;
53269;SDS011;39159;45.634;9.420;2023-04-25T11:17:56;2.97;;;1.73;;
53269;SDS011;39159;45.634;9.420;2023-04-25T11:20:21;12.68;;;4.40;;
53269;SDS011;39159;45.634;9.420;2023-04-25T11:22:50;9.07;;;5.20;;
53269;SDS011;39159;45.634;9.420;2023-04-25T11:25:16;14.77;;;6.57;;
53269;SDS011;39159;45.634;9.420;2023-04-25T11:27:55;4.00;;;2.85;;
53269;SDS011;39159;45.634;9.420;2023-04-25T11:30:22;5.68;;;2.85;;
53269;SDS011;39159;45.634;9.420;2023-04-25T11:32:49;4.85;;;2.58;;
53269;SDS011;39159;45.634;9.420;2023-04-25T11:35:15;4.93;;;2.28;;
53269;SDS011;39159;45.634;9.420;2023-04-25T11:37:42;5.00;;;2.45;;
53269;SDS011;39159;45.634;9.420;2023-04-25T11:40:08;5.13;;;2.25;;
53269;SDS011;39159;45.634;9.420;2023-04-25T11:42:38;5.90;;;2.65;;
53269;SDS011;39159;45.634;9.420;2023-04-25T11:45:08;3.45;;;2.42;;
53269;SDS011;39159;45.634;9.420;2023-04-25T11:47:34;4.82;;;2.40;;
53269;SDS011;39159;45.634;9.420;2023-04-25T11:50:04;7.70;;;2.58;;
53269;SDS011;39159;45.634;9.420;2023-04-25T11:52:41;5.35;;;2.72;;
53269;SDS011;39159;45.634;9.420;2023-04-25T11:55:12;4.35;;;3.00;;
53269;SDS011;39159;45.634;9.420;2023-04-25T11:57:40;4.25;;;2.90;;
53269;SDS011;39159;45.634;9.420;2023-04-25T12:02:34;6.10;;;2.97;;
53269;SDS011;39159;45.634;9.420;2023-04-25T12:05:00;7.15;;;2.95;;
53269;SDS011;39159;45.634;9.420;2023-04-25T12:07:29;6.10;;;2.90;;
53269;SDS011;39159;45.634;9.420;2023-04-25T12:09:55;6.53;;;3.00;;
53269;SDS011;39159;45.634;9.420;2023-04-25T12:12:20;4.47;;;2.90;;
53269;SDS011;39159;45.634;9.420;2023-04-25T12:14:46;7.18;;;3.55;;
53269;SDS011;39159;45.634;9.420;2023-04-25T12:17:13;6.38;;;2.97;;
53269;SDS011;39159;45.634;9.420;2023-04-25T12:19:39;9.68;;;3.60;;
53269;SDS011;39159;45.634;9.420;2023-04-25T12:22:19;12.20;;;5.68;;
53269;SDS011;39159;45.634;9.420;2023-04-25T12:24:46;11.85;;;6.80;;
53269;SDS011;39159;45.634;9.420;2023-04-25T12:27:13;11.05;;;4.88;;
53269;SDS011;39159;45.634;9.420;2023-04-25T12:29:49;7.53;;;5.07;;
53269;SDS011;39159;45.634;9.420;2023-04-25T12:32:21;8.68;;;4.50;;
53269;SDS011;39159;45.634;9.420;2023-04-25T12:34:47;6.10;;;2.95;;
53269;SDS011;39159;45.634;9.420;2023-04-25T12:37:12;7.60;;;4.45;;
53269;SDS011;39159;45.634;9.420;2023-04-25T12:39:38;7.20;;;3.88;;
53269;SDS011;39159;45.634;9.420;2023-04-25T12:42:04;5.25;;;3.40;;
53269;SDS011;39159;45.634;9.420;2023-04-25T12:44:32;5.72;;;3.78;;
53269;SDS011;39159;45.634;9.420;2023-04-25T12:46:58;7.45;;;3.72;;
53269;SDS011;39159;45.634;9.420;2023-04-25T12:49:24;9.07;;;4.95;;
53269;SDS011;39159;45.634;9.420;2023-04-25T12:51:50;30.98;;;23.13;;
53269;SDS011;39159;45.634;9.420;2023-04-25T12:54:16;32.85;;;25.25;;
53269;SDS011;39159;45.634;9.420;2023-04-25T12:56:42;82.40;;;57.55;;
53269;SDS011;39159;45.634;9.420;2023-04-25T12:59:07;18.90;;;13.52;;
53269;SDS011;39159;45.634;9.420;2023-04-25T13:01:34;20.23;;;12.18;;
53269;SDS011;39159;45.634;9.420;2023-04-25T13:03:59;11.48;;;6.63;;
53269;SDS011;39159;45.634;9.420;2023-04-25T13:06:25;7.07;;;3.55;;
53269;SDS011;39159;45.634;9.420;2023-04-25T13:08:51;5.22;;;3.55;;
53269;SDS011;39159;45.634;9.420;2023-04-25T13:11:16;8.82;;;5.05;;
53269;SDS011;39159;45.634;9.420;2023-04-25T13:13:43;8.18;;;4.20;;
53269;SDS011;39159;45.634;9.420;2023-04-25T13:16:09;7.00;;;2.85;;
53269;SDS011;39159;45.634;9.420;2023-04-25T13:18:34;4.30;;;2.33;;
53269;SDS011;39159;45.634;9.420;2023-04-25T13:21:00;2.60;;;1.83;;
53269;SDS011;39159;45.634;9.420;2023-04-25T13:23:26;4.10;;;2.17;;
53269;SDS011;39159;45.634;9.420;2023-04-25T13:25:53;5.15;;;2.00;;
53269;SDS011;39159;45.634;9.420;2023-04-25T13:28:20;4.20;;;2.22;;
53269;SDS011;39159;45.634;9.420;2023-04-25T13:30:46;3.25;;;2.00;;
53269;SDS011;39159;45.634;9.420;2023-04-25T13:33:13;2.53;;;1.33;;
53269;SDS011;39159;45.634;9.420;2023-04-25T13:35:39;3.55;;;1.40;;
53269;SDS011;39159;45.634;9.420;2023-04-25T13:38:05;2.95;;;1.40;;
53269;SDS011;39159;45.634;9.420;2023-04-25T13:40:30;2.53;;;0.85;;
53269;SDS011;39159;45.634;9.420;2023-04-25T13:42:57;2.05;;;1.30;;
53269;SDS011;39159;45.634;9.420;2023-04-25T13:45:23;2.08;;;1.30;;
53269;SDS011;39159;45.634;9.420;2023-04-25T13:47:48;2.65;;;1.20;;
53269;SDS011;39159;45.634;9.420;2023-04-25T13:50:14;4.35;;;1.30;;
53269;SDS011;39159;45.634;9.420;2023-04-25T13:52:41;1.88;;;1.00;;
53269;SDS011;39159;45.634;9.420;2023-04-25T13:55:07;2.10;;;1.10;;
53269;SDS011;39159;45.634;9.420;2023-04-25T13:57:33;2.70;;;0.82;;
53269;SDS011;39159;45.634;9.420;2023-04-25T14:00:00;0.80;;;0.70;;
53269;SDS011;39159;45.634;9.420;2023-04-25T14:02:31;2.53;;;1.00;;
53269;SDS011;39159;45.634;9.420;2023-04-25T14:04:56;1.58;;;0.90;;
53269;SDS011;39159;45.634;9.420;2023-04-25T14:07:21;0.90;;;0.75;;
53269;SDS011;39159;45.634;9.420;2023-04-25T14:09:47;2.33;;;0.80;;
53269;SDS011;39159;45.634;9.420;2023-04-25T14:12:13;3.30;;;0.90;;
53269;SDS011;39159;45.634;9.420;2023-04-25T14:14:38;1.45;;;0.65;;
53269;SDS011;39159;45.634;9.420;2023-04-25T14:17:04;1.27;;;1.00;;
53269;SDS011;39159;45.634;9.420;2023-04-25T14:19:30;1.40;;;0.80;;
53269;SDS011;39159;45.634;9.420;2023-04-25T14:21:55;1.67;;;0.90;;
53269;SDS011;39159;45.634;9.420;2023-04-25T14:24:21;1.10;;;0.77;;
53269;SDS011;39159;45.634;9.420;2023-04-25T14:26:46;0.68;;;0.52;;
53269;SDS011;39159;45.634;9.420;2023-04-25T14:29:12;0.88;;;0.60;;
53269;SDS011;39159;45.634;9.420;2023-04-25T14:31:38;0.68;;;0.60;;
53269;SDS011;39159;45.634;9.420;2023-04-25T14:34:05;2.45;;;0.70;;
53269;SDS011;39159;45.634;9.420;2023-04-25T14:36:31;0.50;;;0.50;;
53269;SDS011;39159;45.634;9.420;2023-04-25T14:38:57;1.13;;;0.70;;
53269;SDS011;39159;45.634;9.420;2023-04-25T14:41:23;0.95;;;0.63;;
53269;SDS011;39159;45.634;9.420;2023-04-25T14:43:49;1.10;;;0.68;;
53269;SDS011;39159;45.634;9.420;2023-04-25T14:46:15;0.75;;;0.65;;
53269;SDS011;39159;45.634;9.420;2023-04-25T14:48:41;1.50;;;0.70;;
53269;SDS011;39159;45.634;9.420;2023-04-25T14:51:07;0.90;;;0.73;;
53269;SDS011;39159;45.634;9.420;2023-04-25T14:53:32;2.03;;;0.70;;
53269;SDS011;39159;45.634;9.420;2023-04-25T14:55:58;1.55;;;0.70;;
53269;SDS011;39159;45.634;9.420;2023-04-25T14:58:23;1.38;;;0.80;;
53269;SDS011;39159;45.634;9.420;2023-04-25T15:00:50;2.55;;;0.60;;
53269;SDS011;39159;45.634;9.420;2023-04-25T15:03:16;1.40;;;0.70;;